sensor_id;sensor_type;location;lat;lon;timestamp;P1;durP1;ratioP1;P2;durP2;ratioP2
5133;SDS011;2585;48.696;10.066;2023-04-16T00:00:49;2.00;;;1.50;;
5133;SDS011;2585;48.696;10.066;2023-04-16T00:03:15;1.37;;;1.27;;
5133;SDS011;2585;48.696;10.066;2023-04-16T00:05:43;1.73;;;1.63;;
5133;SDS011;2585;48.696;10.066;2023-04-16T00:08:09;1.60;;;1.30;;
5133;SDS011;2585;48.696;10.066;2023-04-16T00:10:36;1.50;;;1.40;;
5133;SDS011;2585;48.696;10.066;2023-04-16T00:13:03;1.40;;;1.30;;
5133;SDS011;2585;48.696;10.066;2023-04-16T00:15:30;1.73;;;1.60;;
5133;SDS011;2585;48.696;10.066;2023-04-16T00:17:56;2.03;;;1.60;;
5133;SDS011;2585;48.696;10.066;2023-04-16T00:20:23;2.07;;;1.53;;
5133;SDS011;2585;48.696;10.066;2023-04-16T00:22:50;2.33;;;1.80;;
5133;SDS011;2585;48.696;10.066;2023-04-16T00:25:17;2.57;;;2.00;;
5133;SDS011;2585;48.696;10.066;2023-04-16T00:27:44;1.83;;;1.73;;
5133;SDS011;2585;48.696;10.066;2023-04-16T00:30:10;1.80;;;1.70;;
5133;SDS011;2585;48.696;10.066;2023-04-16T00:32:37;3.00;;;2.10;;
5133;SDS011;2585;48.696;10.066;2023-04-16T00:35:05;2.67;;;1.93;;
5133;SDS011;2585;48.696;10.066;2023-04-16T00:37:32;2.87;;;2.17;;
5133;SDS011;2585;48.696;10.066;2023-04-16T00:39:59;2.13;;;1.70;;
5133;SDS011;2585;48.696;10.066;2023-04-16T00:42:26;1.70;;;1.50;;
5133;SDS011;2585;48.696;10.066;2023-04-16T00:44:53;3.00;;;1.50;;
5133;SDS011;2585;48.696;10.066;2023-04-16T00:47:19;1.50;;;1.40;;
5133;SDS011;2585;48.696;10.066;2023-04-16T00:49:47;2.60;;;1.73;;
5133;SDS011;2585;48.696;10.066;2023-04-16T00:52:14;1.50;;;1.40;;
5133;SDS011;2585;48.696;10.066;2023-04-16T00:54:41;1.70;;;1.60;;
5133;SDS011;2585;48.696;10.066;2023-04-16T00:57:08;2.20;;;2.00;;
5133;SDS011;2585;48.696;10.066;2023-04-16T00:59:35;2.13;;;1.73;;
5133;SDS011;2585;48.696;10.066;2023-04-16T01:02:03;1.90;;;1.80;;
5133;SDS011;2585;48.696;10.066;2023-04-16T01:04:30;2.20;;;2.00;;
5133;SDS011;2585;48.696;10.066;2023-04-16T01:06:56;2.20;;;2.00;;
5133;SDS011;2585;48.696;10.066;2023-04-16T01:09:23;2.23;;;2.03;;
5133;SDS011;2585;48.696;10.066;2023-04-16T01:11:50;3.40;;;1.77;;
5133;SDS011;2585;48.696;10.066;2023-04-16T01:14:17;4.07;;;2.20;;
5133;SDS011;2585;48.696;10.066;2023-04-16T01:16:43;3.00;;;1.63;;
5133;SDS011;2585;48.696;10.066;2023-04-16T01:19:10;1.87;;;1.67;;
5133;SDS011;2585;48.696;10.066;2023-04-16T01:21:37;2.53;;;2.10;;
5133;SDS011;2585;48.696;10.066;2023-04-16T01:24:04;2.07;;;1.80;;
5133;SDS011;2585;48.696;10.066;2023-04-16T01:26:31;2.00;;;1.77;;
5133;SDS011;2585;48.696;10.066;2023-04-16T01:28:58;2.17;;;1.90;;
5133;SDS011;2585;48.696;10.066;2023-04-16T01:31:25;3.13;;;2.37;;
5133;SDS011;2585;48.696;10.066;2023-04-16T01:33:52;2.10;;;2.00;;
5133;SDS011;2585;48.696;10.066;2023-04-16T01:36:19;2.33;;;2.10;;
5133;SDS011;2585;48.696;10.066;2023-04-16T01:38:46;2.40;;;2.00;;
5133;SDS011;2585;48.696;10.066;2023-04-16T01:41:12;2.67;;;2.23;;
5133;SDS011;2585;48.696;10.066;2023-04-16T01:43:39;3.00;;;2.10;;
5133;SDS011;2585;48.696;10.066;2023-04-16T01:48:41;2.83;;;2.40;;
5133;SDS011;2585;48.696;10.066;2023-04-16T01:51:08;2.90;;;2.20;;
5133;SDS011;2585;48.696;10.066;2023-04-16T01:53:35;2.33;;;2.00;;
5133;SDS011;2585;48.696;10.066;2023-04-16T01:56:02;2.30;;;2.10;;
5133;SDS011;2585;48.696;10.066;2023-04-16T01:58:30;2.30;;;2.10;;
5133;SDS011;2585;48.696;10.066;2023-04-16T02:00:58;3.83;;;2.50;;
5133;SDS011;2585;48.696;10.066;2023-04-16T02:03:25;3.10;;;2.80;;
5133;SDS011;2585;48.696;10.066;2023-04-16T02:05:53;2.53;;;2.20;;
5133;SDS011;2585;48.696;10.066;2023-04-16T02:08:19;2.40;;;2.20;;
5133;SDS011;2585;48.696;10.066;2023-04-16T02:10:47;2.60;;;2.10;;
5133;SDS011;2585;48.696;10.066;2023-04-16T02:13:15;2.27;;;2.07;;
5133;SDS011;2585;48.696;10.066;2023-04-16T02:15:48;2.00;;;1.80;;
5133;SDS011;2585;48.696;10.066;2023-04-16T02:18:15;2.90;;;2.60;;
5133;SDS011;2585;48.696;10.066;2023-04-16T02:20:43;3.30;;;2.50;;
5133;SDS011;2585;48.696;10.066;2023-04-16T02:23:11;3.37;;;2.77;;
5133;SDS011;2585;48.696;10.066;2023-04-16T02:25:40;2.53;;;2.27;;
5133;SDS011;2585;48.696;10.066;2023-04-16T02:28:08;2.83;;;2.57;;
5133;SDS011;2585;48.696;10.066;2023-04-16T02:30:36;3.30;;;2.70;;
5133;SDS011;2585;48.696;10.066;2023-04-16T02:33:03;2.70;;;2.37;;
5133;SDS011;2585;48.696;10.066;2023-04-16T02:35:32;2.57;;;2.37;;
5133;SDS011;2585;48.696;10.066;2023-04-16T02:38:00;2.77;;;2.57;;
5133;SDS011;2585;48.696;10.066;2023-04-16T02:40:28;3.30;;;2.83;;
5133;SDS011;2585;48.696;10.066;2023-04-16T02:42:56;3.20;;;2.73;;
5133;SDS011;2585;48.696;10.066;2023-04-16T02:45:23;2.57;;;2.30;;
5133;SDS011;2585;48.696;10.066;2023-04-16T02:47:50;2.90;;;2.63;;
5133;SDS011;2585;48.696;10.066;2023-04-16T02:50:16;3.03;;;2.73;;
5133;SDS011;2585;48.696;10.066;2023-04-16T02:52:43;2.80;;;2.50;;
5133;SDS011;2585;48.696;10.066;2023-04-16T02:55:10;2.63;;;2.43;;
5133;SDS011;2585;48.696;10.066;2023-04-16T02:57:37;3.07;;;2.80;;
5133;SDS011;2585;48.696;10.066;2023-04-16T03:00:04;2.57;;;2.30;;
5133;SDS011;2585;48.696;10.066;2023-04-16T03:02:32;2.80;;;2.40;;
5133;SDS011;2585;48.696;10.066;2023-04-16T03:04:58;2.80;;;2.23;;
5133;SDS011;2585;48.696;10.066;2023-04-16T03:07:25;2.27;;;2.00;;
5133;SDS011;2585;48.696;10.066;2023-04-16T03:09:52;2.03;;;1.83;;
5133;SDS011;2585;48.696;10.066;2023-04-16T03:12:19;1.70;;;1.40;;
5133;SDS011;2585;48.696;10.066;2023-04-16T03:14:45;1.37;;;1.27;;
5133;SDS011;2585;48.696;10.066;2023-04-16T03:17:12;1.40;;;1.20;;
5133;SDS011;2585;48.696;10.066;2023-04-16T03:19:39;2.40;;;1.80;;
5133;SDS011;2585;48.696;10.066;2023-04-16T03:22:06;1.40;;;1.30;;
5133;SDS011;2585;48.696;10.066;2023-04-16T03:24:32;1.20;;;1.10;;
5133;SDS011;2585;48.696;10.066;2023-04-16T03:26:59;1.10;;;1.00;;
5133;SDS011;2585;48.696;10.066;2023-04-16T03:29:27;1.20;;;1.10;;
5133;SDS011;2585;48.696;10.066;2023-04-16T03:31:54;1.40;;;1.10;;
5133;SDS011;2585;48.696;10.066;2023-04-16T03:34:21;2.03;;;1.30;;
5133;SDS011;2585;48.696;10.066;2023-04-16T03:36:47;2.00;;;1.40;;
5133;SDS011;2585;48.696;10.066;2023-04-16T03:39:14;1.47;;;1.03;;
5133;SDS011;2585;48.696;10.066;2023-04-16T03:41:41;1.30;;;1.20;;
5133;SDS011;2585;48.696;10.066;2023-04-16T03:44:08;1.73;;;1.17;;
5133;SDS011;2585;48.696;10.066;2023-04-16T03:46:35;1.50;;;1.40;;
5133;SDS011;2585;48.696;10.066;2023-04-16T03:49:01;1.00;;;0.90;;
5133;SDS011;2585;48.696;10.066;2023-04-16T03:51:28;1.20;;;1.00;;
5133;SDS011;2585;48.696;10.066;2023-04-16T03:53:56;1.30;;;1.20;;
5133;SDS011;2585;48.696;10.066;2023-04-16T03:56:22;1.17;;;1.03;;
5133;SDS011;2585;48.696;10.066;2023-04-16T03:58:49;1.30;;;1.00;;
5133;SDS011;2585;48.696;10.066;2023-04-16T04:01:16;1.20;;;1.10;;
5133;SDS011;2585;48.696;10.066;2023-04-16T04:03:43;1.20;;;1.10;;
5133;SDS011;2585;48.696;10.066;2023-04-16T04:06:10;1.30;;;1.20;;
5133;SDS011;2585;48.696;10.066;2023-04-16T04:08:37;1.50;;;1.00;;
5133;SDS011;2585;48.696;10.066;2023-04-16T04:11:04;1.10;;;1.00;;
5133;SDS011;2585;48.696;10.066;2023-04-16T04:13:30;1.43;;;0.90;;
5133;SDS011;2585;48.696;10.066;2023-04-16T04:15:57;2.10;;;1.03;;
5133;SDS011;2585;48.696;10.066;2023-04-16T04:18:24;1.00;;;0.90;;
5133;SDS011;2585;48.696;10.066;2023-04-16T04:20:51;1.00;;;0.90;;
5133;SDS011;2585;48.696;10.066;2023-04-16T04:23:18;1.10;;;1.00;;
5133;SDS011;2585;48.696;10.066;2023-04-16T04:25:45;1.07;;;0.97;;
5133;SDS011;2585;48.696;10.066;2023-04-16T04:28:12;1.10;;;1.00;;
5133;SDS011;2585;48.696;10.066;2023-04-16T04:30:39;1.00;;;0.90;;
5133;SDS011;2585;48.696;10.066;2023-04-16T04:33:06;1.30;;;1.13;;
5133;SDS011;2585;48.696;10.066;2023-04-16T04:35:32;1.10;;;1.00;;
5133;SDS011;2585;48.696;10.066;2023-04-16T04:38:00;1.10;;;1.00;;
5133;SDS011;2585;48.696;10.066;2023-04-16T04:40:28;1.20;;;1.10;;
5133;SDS011;2585;48.696;10.066;2023-04-16T04:42:54;1.10;;;1.00;;
5133;SDS011;2585;48.696;10.066;2023-04-16T04:45:21;1.10;;;1.00;;
5133;SDS011;2585;48.696;10.066;2023-04-16T04:47:53;1.63;;;1.13;;
5133;SDS011;2585;48.696;10.066;2023-04-16T04:50:20;1.40;;;1.13;;
5133;SDS011;2585;48.696;10.066;2023-04-16T04:52:47;1.70;;;1.60;;
5133;SDS011;2585;48.696;10.066;2023-04-16T04:55:14;1.70;;;1.40;;
5133;SDS011;2585;48.696;10.066;2023-04-16T04:57:41;1.73;;;1.20;;
5133;SDS011;2585;48.696;10.066;2023-04-16T05:00:08;3.27;;;1.90;;
5133;SDS011;2585;48.696;10.066;2023-04-16T05:02:35;3.20;;;2.17;;
5133;SDS011;2585;48.696;10.066;2023-04-16T05:05:02;2.17;;;1.90;;
5133;SDS011;2585;48.696;10.066;2023-04-16T05:07:30;2.00;;;1.80;;
5133;SDS011;2585;48.696;10.066;2023-04-16T05:09:57;1.40;;;1.30;;
5133;SDS011;2585;48.696;10.066;2023-04-16T05:12:24;1.70;;;1.53;;
5133;SDS011;2585;48.696;10.066;2023-04-16T05:14:51;1.67;;;1.57;;
5133;SDS011;2585;48.696;10.066;2023-04-16T05:17:18;1.83;;;1.70;;
5133;SDS011;2585;48.696;10.066;2023-04-16T05:19:44;2.10;;;1.50;;
5133;SDS011;2585;48.696;10.066;2023-04-16T05:22:11;1.47;;;1.37;;
5133;SDS011;2585;48.696;10.066;2023-04-16T05:24:38;3.07;;;1.43;;
5133;SDS011;2585;48.696;10.066;2023-04-16T05:27:05;1.93;;;1.60;;
5133;SDS011;2585;48.696;10.066;2023-04-16T05:29:32;3.90;;;1.60;;
5133;SDS011;2585;48.696;10.066;2023-04-16T05:31:58;2.60;;;1.73;;
5133;SDS011;2585;48.696;10.066;2023-04-16T05:34:25;1.90;;;1.40;;
5133;SDS011;2585;48.696;10.066;2023-04-16T05:36:52;1.40;;;1.30;;
5133;SDS011;2585;48.696;10.066;2023-04-16T05:39:19;1.53;;;1.43;;
5133;SDS011;2585;48.696;10.066;2023-04-16T05:41:46;2.03;;;1.67;;
5133;SDS011;2585;48.696;10.066;2023-04-16T05:44:13;1.57;;;1.30;;
5133;SDS011;2585;48.696;10.066;2023-04-16T05:46:40;1.60;;;1.50;;
5133;SDS011;2585;48.696;10.066;2023-04-16T05:49:07;1.37;;;1.27;;
5133;SDS011;2585;48.696;10.066;2023-04-16T05:51:34;2.60;;;1.97;;
5133;SDS011;2585;48.696;10.066;2023-04-16T05:54:01;2.30;;;2.10;;
5133;SDS011;2585;48.696;10.066;2023-04-16T05:56:28;1.60;;;1.50;;
5133;SDS011;2585;48.696;10.066;2023-04-16T05:58:54;2.77;;;2.20;;
5133;SDS011;2585;48.696;10.066;2023-04-16T06:01:21;2.70;;;2.30;;
5133;SDS011;2585;48.696;10.066;2023-04-16T06:03:48;2.40;;;2.20;;
5133;SDS011;2585;48.696;10.066;2023-04-16T06:06:15;2.27;;;1.90;;
5133;SDS011;2585;48.696;10.066;2023-04-16T06:08:42;2.53;;;2.10;;
5133;SDS011;2585;48.696;10.066;2023-04-16T06:11:08;2.20;;;1.63;;
5133;SDS011;2585;48.696;10.066;2023-04-16T06:13:36;2.43;;;1.60;;
5133;SDS011;2585;48.696;10.066;2023-04-16T06:16:04;3.10;;;1.93;;
5133;SDS011;2585;48.696;10.066;2023-04-16T06:18:31;2.43;;;2.23;;
5133;SDS011;2585;48.696;10.066;2023-04-16T06:20:58;1.70;;;1.60;;
5133;SDS011;2585;48.696;10.066;2023-04-16T06:23:25;2.80;;;1.83;;
5133;SDS011;2585;48.696;10.066;2023-04-16T06:25:52;2.20;;;2.00;;
5133;SDS011;2585;48.696;10.066;2023-04-16T06:28:19;3.27;;;2.17;;
5133;SDS011;2585;48.696;10.066;2023-04-16T06:30:46;2.10;;;1.60;;
5133;SDS011;2585;48.696;10.066;2023-04-16T06:33:13;1.80;;;1.70;;
5133;SDS011;2585;48.696;10.066;2023-04-16T06:35:39;2.80;;;1.90;;
5133;SDS011;2585;48.696;10.066;2023-04-16T06:38:06;1.90;;;1.70;;
5133;SDS011;2585;48.696;10.066;2023-04-16T06:40:33;1.83;;;1.73;;
5133;SDS011;2585;48.696;10.066;2023-04-16T06:43:02;2.10;;;1.80;;
5133;SDS011;2585;48.696;10.066;2023-04-16T06:45:29;1.93;;;1.73;;
5133;SDS011;2585;48.696;10.066;2023-04-16T06:47:55;2.67;;;2.10;;
5133;SDS011;2585;48.696;10.066;2023-04-16T06:50:24;2.50;;;1.83;;
5133;SDS011;2585;48.696;10.066;2023-04-16T06:52:52;2.33;;;1.90;;
5133;SDS011;2585;48.696;10.066;2023-04-16T06:55:18;2.07;;;1.83;;
5133;SDS011;2585;48.696;10.066;2023-04-16T06:57:45;2.10;;;1.90;;
5133;SDS011;2585;48.696;10.066;2023-04-16T07:00:12;2.50;;;2.30;;
5133;SDS011;2585;48.696;10.066;2023-04-16T07:02:39;2.70;;;2.33;;
5133;SDS011;2585;48.696;10.066;2023-04-16T07:05:06;2.50;;;2.17;;
5133;SDS011;2585;48.696;10.066;2023-04-16T07:07:34;3.00;;;2.70;;
5133;SDS011;2585;48.696;10.066;2023-04-16T07:10:00;2.43;;;2.20;;
5133;SDS011;2585;48.696;10.066;2023-04-16T07:12:27;2.10;;;1.80;;
5133;SDS011;2585;48.696;10.066;2023-04-16T07:14:54;2.33;;;2.13;;
5133;SDS011;2585;48.696;10.066;2023-04-16T07:17:21;2.70;;;2.47;;
5133;SDS011;2585;48.696;10.066;2023-04-16T07:19:49;2.30;;;2.10;;
5133;SDS011;2585;48.696;10.066;2023-04-16T07:22:16;2.30;;;2.10;;
5133;SDS011;2585;48.696;10.066;2023-04-16T07:24:43;3.00;;;2.20;;
5133;SDS011;2585;48.696;10.066;2023-04-16T07:27:09;2.53;;;2.30;;
5133;SDS011;2585;48.696;10.066;2023-04-16T07:29:36;3.57;;;2.07;;
5133;SDS011;2585;48.696;10.066;2023-04-16T07:32:03;2.43;;;2.23;;
5133;SDS011;2585;48.696;10.066;2023-04-16T07:34:30;2.63;;;2.23;;
5133;SDS011;2585;48.696;10.066;2023-04-16T07:36:57;3.30;;;2.53;;
5133;SDS011;2585;48.696;10.066;2023-04-16T07:39:24;3.60;;;2.07;;
5133;SDS011;2585;48.696;10.066;2023-04-16T07:41:50;2.90;;;2.60;;
5133;SDS011;2585;48.696;10.066;2023-04-16T07:44:17;2.33;;;2.13;;
5133;SDS011;2585;48.696;10.066;2023-04-16T07:46:44;3.40;;;2.67;;
5133;SDS011;2585;48.696;10.066;2023-04-16T07:49:13;3.57;;;2.50;;
5133;SDS011;2585;48.696;10.066;2023-04-16T07:51:40;3.23;;;2.80;;
5133;SDS011;2585;48.696;10.066;2023-04-16T07:54:07;2.90;;;2.30;;
5133;SDS011;2585;48.696;10.066;2023-04-16T07:56:34;2.90;;;2.43;;
5133;SDS011;2585;48.696;10.066;2023-04-16T07:59:01;3.73;;;2.77;;
5133;SDS011;2585;48.696;10.066;2023-04-16T08:01:44;2.40;;;2.13;;
5133;SDS011;2585;48.696;10.066;2023-04-16T08:04:11;2.27;;;2.07;;
5133;SDS011;2585;48.696;10.066;2023-04-16T08:06:38;3.60;;;2.67;;
5133;SDS011;2585;48.696;10.066;2023-04-16T08:09:05;3.83;;;2.87;;
5133;SDS011;2585;48.696;10.066;2023-04-16T08:11:31;3.80;;;3.00;;
5133;SDS011;2585;48.696;10.066;2023-04-16T08:13:58;3.27;;;2.67;;
5133;SDS011;2585;48.696;10.066;2023-04-16T08:16:25;3.13;;;2.50;;
5133;SDS011;2585;48.696;10.066;2023-04-16T08:18:52;3.67;;;2.80;;
5133;SDS011;2585;48.696;10.066;2023-04-16T08:21:19;2.80;;;2.33;;
5133;SDS011;2585;48.696;10.066;2023-04-16T08:23:46;2.80;;;2.50;;
5133;SDS011;2585;48.696;10.066;2023-04-16T08:26:12;3.20;;;2.37;;
5133;SDS011;2585;48.696;10.066;2023-04-16T08:28:39;3.13;;;2.63;;
5133;SDS011;2585;48.696;10.066;2023-04-16T08:31:06;2.70;;;2.30;;
5133;SDS011;2585;48.696;10.066;2023-04-16T08:33:33;2.80;;;2.60;;
5133;SDS011;2585;48.696;10.066;2023-04-16T08:36:00;3.30;;;2.53;;
5133;SDS011;2585;48.696;10.066;2023-04-16T08:38:26;2.70;;;2.43;;
5133;SDS011;2585;48.696;10.066;2023-04-16T08:40:53;3.33;;;2.43;;
5133;SDS011;2585;48.696;10.066;2023-04-16T08:43:23;3.70;;;2.83;;
5133;SDS011;2585;48.696;10.066;2023-04-16T08:45:51;2.10;;;2.00;;
5133;SDS011;2585;48.696;10.066;2023-04-16T08:48:21;4.90;;;2.70;;
5133;SDS011;2585;48.696;10.066;2023-04-16T08:50:51;6.57;;;3.90;;
5133;SDS011;2585;48.696;10.066;2023-04-16T08:53:21;2.10;;;1.90;;
5133;SDS011;2585;48.696;10.066;2023-04-16T08:55:54;3.57;;;2.47;;
5133;SDS011;2585;48.696;10.066;2023-04-16T08:58:24;2.80;;;2.43;;
5133;SDS011;2585;48.696;10.066;2023-04-16T09:00:57;3.67;;;2.00;;
5133;SDS011;2585;48.696;10.066;2023-04-16T09:03:23;2.57;;;2.37;;
5133;SDS011;2585;48.696;10.066;2023-04-16T09:05:50;1.97;;;1.77;;
5133;SDS011;2585;48.696;10.066;2023-04-16T09:08:18;2.33;;;2.10;;
5133;SDS011;2585;48.696;10.066;2023-04-16T09:10:46;2.53;;;2.20;;
5133;SDS011;2585;48.696;10.066;2023-04-16T09:13:14;3.00;;;2.70;;
5133;SDS011;2585;48.696;10.066;2023-04-16T09:15:45;2.97;;;2.67;;
5133;SDS011;2585;48.696;10.066;2023-04-16T09:18:12;5.53;;;2.83;;
5133;SDS011;2585;48.696;10.066;2023-04-16T09:20:39;3.77;;;3.13;;
5133;SDS011;2585;48.696;10.066;2023-04-16T09:23:06;14.43;;;7.80;;
5133;SDS011;2585;48.696;10.066;2023-04-16T09:25:34;4.90;;;4.40;;
5133;SDS011;2585;48.696;10.066;2023-04-16T09:28:02;12.73;;;8.17;;
5133;SDS011;2585;48.696;10.066;2023-04-16T09:30:29;18.07;;;9.90;;
5133;SDS011;2585;48.696;10.066;2023-04-16T09:35:48;6.67;;;4.67;;
5133;SDS011;2585;48.696;10.066;2023-04-16T09:38:19;8.63;;;6.43;;
5133;SDS011;2585;48.696;10.066;2023-04-16T09:40:46;5.70;;;3.70;;
5133;SDS011;2585;48.696;10.066;2023-04-16T09:43:13;10.43;;;5.30;;
5133;SDS011;2585;48.696;10.066;2023-04-16T09:48:19;8.53;;;5.83;;
5133;SDS011;2585;48.696;10.066;2023-04-16T09:50:57;8.83;;;7.80;;
5133;SDS011;2585;48.696;10.066;2023-04-16T09:55:55;8.27;;;7.47;;
5133;SDS011;2585;48.696;10.066;2023-04-16T09:58:23;8.43;;;5.80;;
5133;SDS011;2585;48.696;10.066;2023-04-16T10:00:54;6.80;;;5.60;;
5133;SDS011;2585;48.696;10.066;2023-04-16T10:03:32;7.93;;;5.17;;
5133;SDS011;2585;48.696;10.066;2023-04-16T10:06:07;4.13;;;3.73;;
5133;SDS011;2585;48.696;10.066;2023-04-16T10:08:35;3.87;;;3.20;;
5133;SDS011;2585;48.696;10.066;2023-04-16T10:11:01;3.33;;;3.07;;
5133;SDS011;2585;48.696;10.066;2023-04-16T10:13:28;4.63;;;3.37;;
5133;SDS011;2585;48.696;10.066;2023-04-16T10:15:56;4.97;;;3.63;;
5133;SDS011;2585;48.696;10.066;2023-04-16T10:18:23;7.67;;;5.80;;
5133;SDS011;2585;48.696;10.066;2023-04-16T10:20:50;16.13;;;9.30;;
5133;SDS011;2585;48.696;10.066;2023-04-16T10:23:21;11.60;;;7.43;;
5133;SDS011;2585;48.696;10.066;2023-04-16T10:25:48;6.80;;;5.07;;
5133;SDS011;2585;48.696;10.066;2023-04-16T10:28:15;9.03;;;6.23;;
5133;SDS011;2585;48.696;10.066;2023-04-16T10:30:43;3.87;;;2.77;;
5133;SDS011;2585;48.696;10.066;2023-04-16T10:33:19;2.97;;;2.67;;
5133;SDS011;2585;48.696;10.066;2023-04-16T10:36:05;1.97;;;1.87;;
5133;SDS011;2585;48.696;10.066;2023-04-16T10:38:46;2.30;;;2.10;;
5133;SDS011;2585;48.696;10.066;2023-04-16T10:41:14;4.27;;;3.17;;
5133;SDS011;2585;48.696;10.066;2023-04-16T10:43:46;6.10;;;5.20;;
5133;SDS011;2585;48.696;10.066;2023-04-16T10:48:43;2.40;;;2.20;;
5133;SDS011;2585;48.696;10.066;2023-04-16T10:51:29;2.30;;;2.00;;
5133;SDS011;2585;48.696;10.066;2023-04-16T10:54:02;2.43;;;2.23;;
5133;SDS011;2585;48.696;10.066;2023-04-16T10:56:32;2.70;;;2.50;;
5133;SDS011;2585;48.696;10.066;2023-04-16T10:59:00;3.10;;;2.80;;
5133;SDS011;2585;48.696;10.066;2023-04-16T11:01:31;3.97;;;2.63;;
5133;SDS011;2585;48.696;10.066;2023-04-16T11:12:40;2.50;;;2.20;;
5133;SDS011;2585;48.696;10.066;2023-04-16T11:15:13;2.60;;;2.40;;
5133;SDS011;2585;48.696;10.066;2023-04-16T11:17:45;2.60;;;2.17;;
5133;SDS011;2585;48.696;10.066;2023-04-16T11:20:14;3.30;;;2.27;;
5133;SDS011;2585;48.696;10.066;2023-04-16T11:22:49;3.07;;;2.13;;
5133;SDS011;2585;48.696;10.066;2023-04-16T11:25:20;2.27;;;2.07;;
5133;SDS011;2585;48.696;10.066;2023-04-16T11:27:49;2.30;;;2.10;;
5133;SDS011;2585;48.696;10.066;2023-04-16T11:30:17;3.00;;;2.70;;
5133;SDS011;2585;48.696;10.066;2023-04-16T11:32:52;3.17;;;2.73;;
5133;SDS011;2585;48.696;10.066;2023-04-16T11:35:19;8.10;;;4.33;;
5133;SDS011;2585;48.696;10.066;2023-04-16T11:37:46;6.60;;;3.90;;
5133;SDS011;2585;48.696;10.066;2023-04-16T11:40:14;5.63;;;4.33;;
5133;SDS011;2585;48.696;10.066;2023-04-16T11:42:41;13.20;;;6.97;;
5133;SDS011;2585;48.696;10.066;2023-04-16T11:45:09;6.30;;;4.17;;
5133;SDS011;2585;48.696;10.066;2023-04-16T11:50:19;24.53;;;11.40;;
5133;SDS011;2585;48.696;10.066;2023-04-16T11:52:47;14.17;;;8.70;;
5133;SDS011;2585;48.696;10.066;2023-04-16T11:55:15;13.90;;;8.80;;
5133;SDS011;2585;48.696;10.066;2023-04-16T11:57:42;5.30;;;3.47;;
5133;SDS011;2585;48.696;10.066;2023-04-16T12:00:09;9.17;;;5.60;;
5133;SDS011;2585;48.696;10.066;2023-04-16T12:02:40;5.30;;;3.13;;
5133;SDS011;2585;48.696;10.066;2023-04-16T12:05:28;5.67;;;3.70;;
5133;SDS011;2585;48.696;10.066;2023-04-16T12:08:09;4.07;;;3.20;;
5133;SDS011;2585;48.696;10.066;2023-04-16T12:10:51;4.50;;;3.60;;
5133;SDS011;2585;48.696;10.066;2023-04-16T12:13:19;3.67;;;2.83;;
5133;SDS011;2585;48.696;10.066;2023-04-16T12:15:52;4.00;;;3.23;;
5133;SDS011;2585;48.696;10.066;2023-04-16T12:18:21;6.40;;;3.33;;
5133;SDS011;2585;48.696;10.066;2023-04-16T12:20:49;2.80;;;2.07;;
5133;SDS011;2585;48.696;10.066;2023-04-16T12:23:26;2.90;;;2.43;;
5133;SDS011;2585;48.696;10.066;2023-04-16T12:25:58;2.67;;;2.30;;
5133;SDS011;2585;48.696;10.066;2023-04-16T12:28:36;3.47;;;2.60;;
5133;SDS011;2585;48.696;10.066;2023-04-16T12:31:04;2.03;;;1.87;;
5133;SDS011;2585;48.696;10.066;2023-04-16T12:33:31;2.17;;;1.90;;
5133;SDS011;2585;48.696;10.066;2023-04-16T12:35:58;1.97;;;1.77;;
5133;SDS011;2585;48.696;10.066;2023-04-16T12:38:27;2.17;;;1.70;;
5133;SDS011;2585;48.696;10.066;2023-04-16T12:40:54;3.30;;;2.00;;
5133;SDS011;2585;48.696;10.066;2023-04-16T12:43:22;2.17;;;1.70;;
5133;SDS011;2585;48.696;10.066;2023-04-16T12:45:50;2.40;;;2.20;;
5133;SDS011;2585;48.696;10.066;2023-04-16T12:48:16;2.50;;;2.30;;
5133;SDS011;2585;48.696;10.066;2023-04-16T12:50:43;4.00;;;3.30;;
5133;SDS011;2585;48.696;10.066;2023-04-16T12:53:11;3.67;;;2.57;;
5133;SDS011;2585;48.696;10.066;2023-04-16T12:55:38;2.87;;;2.50;;
5133;SDS011;2585;48.696;10.066;2023-04-16T12:58:04;3.10;;;1.67;;
5133;SDS011;2585;48.696;10.066;2023-04-16T13:00:32;2.93;;;2.30;;
5133;SDS011;2585;48.696;10.066;2023-04-16T13:02:58;2.53;;;2.30;;
5133;SDS011;2585;48.696;10.066;2023-04-16T13:05:25;1.70;;;1.60;;
5133;SDS011;2585;48.696;10.066;2023-04-16T13:07:52;6.23;;;4.50;;
5133;SDS011;2585;48.696;10.066;2023-04-16T13:10:20;3.67;;;2.90;;
5133;SDS011;2585;48.696;10.066;2023-04-16T13:12:48;3.53;;;2.80;;
5133;SDS011;2585;48.696;10.066;2023-04-16T13:15:15;4.87;;;4.00;;
5133;SDS011;2585;48.696;10.066;2023-04-16T13:17:42;3.27;;;2.80;;
5133;SDS011;2585;48.696;10.066;2023-04-16T13:20:09;2.90;;;2.37;;
5133;SDS011;2585;48.696;10.066;2023-04-16T13:22:36;2.33;;;2.13;;
5133;SDS011;2585;48.696;10.066;2023-04-16T13:25:03;4.23;;;3.10;;
5133;SDS011;2585;48.696;10.066;2023-04-16T13:27:30;4.00;;;3.70;;
5133;SDS011;2585;48.696;10.066;2023-04-16T13:29:57;4.23;;;3.40;;
5133;SDS011;2585;48.696;10.066;2023-04-16T13:32:24;3.20;;;2.40;;
5133;SDS011;2585;48.696;10.066;2023-04-16T13:34:51;8.50;;;5.00;;
5133;SDS011;2585;48.696;10.066;2023-04-16T13:37:18;3.53;;;2.60;;
5133;SDS011;2585;48.696;10.066;2023-04-16T13:39:45;2.97;;;2.47;;
5133;SDS011;2585;48.696;10.066;2023-04-16T13:42:12;6.80;;;4.70;;
5133;SDS011;2585;48.696;10.066;2023-04-16T13:44:39;3.40;;;2.67;;
5133;SDS011;2585;48.696;10.066;2023-04-16T13:47:06;7.57;;;3.80;;
5133;SDS011;2585;48.696;10.066;2023-04-16T13:49:33;3.13;;;2.73;;
5133;SDS011;2585;48.696;10.066;2023-04-16T13:52:01;7.33;;;3.73;;
5133;SDS011;2585;48.696;10.066;2023-04-16T13:54:28;3.73;;;3.13;;
5133;SDS011;2585;48.696;10.066;2023-04-16T13:56:55;5.07;;;3.67;;
5133;SDS011;2585;48.696;10.066;2023-04-16T13:59:22;4.80;;;3.70;;
5133;SDS011;2585;48.696;10.066;2023-04-16T14:01:49;13.80;;;8.00;;
5133;SDS011;2585;48.696;10.066;2023-04-16T14:04:16;5.97;;;4.67;;
5133;SDS011;2585;48.696;10.066;2023-04-16T14:06:44;14.83;;;7.60;;
5133;SDS011;2585;48.696;10.066;2023-04-16T14:09:10;3.27;;;2.43;;
5133;SDS011;2585;48.696;10.066;2023-04-16T14:11:37;10.77;;;7.10;;
5133;SDS011;2585;48.696;10.066;2023-04-16T14:14:04;18.03;;;9.87;;
5133;SDS011;2585;48.696;10.066;2023-04-16T14:16:31;12.70;;;7.60;;
5133;SDS011;2585;48.696;10.066;2023-04-16T14:19:00;3.77;;;2.43;;
5133;SDS011;2585;48.696;10.066;2023-04-16T14:21:27;2.90;;;2.27;;
5133;SDS011;2585;48.696;10.066;2023-04-16T14:23:54;2.50;;;2.27;;
5133;SDS011;2585;48.696;10.066;2023-04-16T14:26:21;3.93;;;2.53;;
5133;SDS011;2585;48.696;10.066;2023-04-16T14:28:49;2.60;;;2.37;;
5133;SDS011;2585;48.696;10.066;2023-04-16T14:31:16;2.07;;;1.87;;
5133;SDS011;2585;48.696;10.066;2023-04-16T14:33:43;2.40;;;2.03;;
5133;SDS011;2585;48.696;10.066;2023-04-16T14:36:10;2.40;;;2.20;;
5133;SDS011;2585;48.696;10.066;2023-04-16T14:38:37;2.43;;;2.23;;
5133;SDS011;2585;48.696;10.066;2023-04-16T14:41:04;1.90;;;1.80;;
5133;SDS011;2585;48.696;10.066;2023-04-16T14:43:30;2.10;;;1.83;;
5133;SDS011;2585;48.696;10.066;2023-04-16T14:45:57;2.70;;;2.17;;
5133;SDS011;2585;48.696;10.066;2023-04-16T14:48:25;5.93;;;4.63;;
5133;SDS011;2585;48.696;10.066;2023-04-16T14:50:52;7.33;;;3.17;;
5133;SDS011;2585;48.696;10.066;2023-04-16T14:53:19;3.03;;;2.57;;
5133;SDS011;2585;48.696;10.066;2023-04-16T14:55:46;3.80;;;2.30;;
5133;SDS011;2585;48.696;10.066;2023-04-16T14:58:12;2.00;;;1.80;;
5133;SDS011;2585;48.696;10.066;2023-04-16T15:00:39;2.10;;;1.90;;
5133;SDS011;2585;48.696;10.066;2023-04-16T15:03:06;2.90;;;1.90;;
5133;SDS011;2585;48.696;10.066;2023-04-16T15:05:34;2.67;;;2.03;;
5133;SDS011;2585;48.696;10.066;2023-04-16T15:08:01;2.03;;;1.90;;
5133;SDS011;2585;48.696;10.066;2023-04-16T15:10:29;4.90;;;3.40;;
5133;SDS011;2585;48.696;10.066;2023-04-16T15:12:55;11.77;;;7.07;;
5133;SDS011;2585;48.696;10.066;2023-04-16T15:15:22;5.23;;;3.73;;
5133;SDS011;2585;48.696;10.066;2023-04-16T15:17:49;9.87;;;6.40;;
5133;SDS011;2585;48.696;10.066;2023-04-16T15:20:17;13.30;;;7.53;;
5133;SDS011;2585;48.696;10.066;2023-04-16T15:22:43;10.90;;;7.00;;
5133;SDS011;2585;48.696;10.066;2023-04-16T15:25:10;16.63;;;9.27;;
5133;SDS011;2585;48.696;10.066;2023-04-16T15:27:38;21.73;;;12.60;;